createdAt,value
2023-02-19T00:01:12.203Z,98715.36
2023-02-19T00:03:40.628Z,98709.40
2023-02-19T00:06:09.196Z,98711.66
2023-02-19T00:08:36.739Z,98713.84
2023-02-19T00:11:12.152Z,98714.44
2023-02-19T00:13:40.716Z,98713.07
2023-02-19T00:16:14.166Z,98710.40
2023-02-19T00:18:41.181Z,98711.06
2023-02-19T00:21:08.156Z,98713.58
2023-02-19T00:23:35.992Z,98711.99
2023-02-19T00:26:17.704Z,98711.17
2023-02-19T00:28:46.585Z,98712.09
2023-02-19T00:31:18.143Z,98711.55
2023-02-19T00:33:46.282Z,98711.42
2023-02-19T00:36:13.437Z,98709.52
2023-02-19T00:38:41.464Z,98706.53
2023-02-19T00:41:20.735Z,98706.52
2023-02-19T00:43:53.584Z,98708.20
2023-02-19T00:46:24.107Z,98710.34
2023-02-19T00:48:52.173Z,98712.11
2023-02-19T00:51:20.022Z,98713.52
2023-02-19T00:53:50.629Z,98719.41
2023-02-19T00:56:17.518Z,98721.53
2023-02-19T00:58:44.414Z,98726.95
2023-02-19T01:01:11.733Z,98727.23
2023-02-19T01:03:39.040Z,98724.88
2023-02-19T01:06:08.015Z,98725.17
2023-02-19T01:08:35.003Z,98729.67
2023-02-19T01:11:04.602Z,98732.07
2023-02-19T01:13:31.532Z,98731.96
2023-02-19T01:16:06.648Z,98735.79
2023-02-19T01:18:34.835Z,98733.95
2023-02-19T01:21:06.677Z,98730.38
2023-02-19T01:23:36.035Z,98731.91
2023-02-19T01:26:07.246Z,98730.64
2023-02-19T01:28:34.340Z,98733.32
2023-02-19T01:31:05.443Z,98736.29
2023-02-19T01:33:33.899Z,98737.99
2023-02-19T01:36:03.674Z,98740.44
2023-02-19T01:38:30.375Z,98739.27
2023-02-19T01:41:02.109Z,98738.85
2023-02-19T01:43:29.190Z,98738.91
2023-02-19T01:45:56.023Z,98746.46
2023-02-19T01:48:24.308Z,98746.03
2023-02-19T01:50:57.416Z,98744.17
2023-02-19T01:53:27.211Z,98748.64
2023-02-19T01:55:56.000Z,98752.91
2023-02-19T01:58:24.102Z,98754.68
2023-02-19T02:00:51.575Z,98753.15
2023-02-19T02:03:19.825Z,98753.31
2023-02-19T02:05:56.493Z,98767.35
2023-02-19T02:08:43.212Z,98771.54
2023-02-19T02:11:10.476Z,98774.38
2023-02-19T02:13:37.815Z,98773.30
2023-02-19T02:16:19.789Z,98775.51
2023-02-19T02:18:58.049Z,98778.87
2023-02-19T02:21:50.132Z,98785.67
2023-02-19T02:24:42.192Z,98783.80
2023-02-19T02:27:27.911Z,98790.60
2023-02-19T02:30:19.985Z,98789.98
2023-02-19T02:33:00.462Z,98790.92
2023-02-19T02:35:33.620Z,98785.90
2023-02-19T02:38:04.615Z,98788.40
2023-02-19T02:40:32.646Z,98785.04
2023-02-19T02:43:00.744Z,98791.23
2023-02-19T02:45:36.263Z,98796.69
2023-02-19T02:48:53.329Z,98797.48
2023-02-19T02:51:20.279Z,98816.50
2023-02-19T02:54:31.200Z,98816.13
2023-02-19T02:56:59.676Z,98821.19
2023-02-19T02:59:32.211Z,98821.38
2023-02-19T03:02:11.941Z,98826.06
2023-02-19T03:05:20.691Z,98828.13
2023-02-19T03:07:58.824Z,98827.72
2023-02-19T03:10:36.404Z,98829.30
2023-02-19T03:13:23.860Z,98826.41
2023-02-19T03:16:13.419Z,98831.12
2023-02-19T03:19:00.672Z,98835.27
2023-02-19T03:21:28.096Z,98836.28
2023-02-19T03:24:14.681Z,98840.30
2023-02-19T03:26:41.467Z,98843.30
2023-02-19T03:29:23.745Z,98843.99
2023-02-19T03:32:04.862Z,98848.23
2023-02-19T03:34:36.994Z,98852.83
2023-02-19T03:37:24.664Z,98855.90
2023-02-19T03:39:52.679Z,98865.70
2023-02-19T03:42:36.936Z,98866.84
2023-02-19T03:45:26.685Z,98867.65
2023-02-19T03:48:10.307Z,98872.54
2023-02-19T03:51:19.525Z,98874.38
2023-02-19T03:53:52.616Z,98865.30
2023-02-19T03:56:25.569Z,98866.06
2023-02-19T03:59:09.835Z,98864.33
2023-02-19T04:02:02.764Z,98863.31
2023-02-19T04:04:44.017Z,98864.00
2023-02-19T04:07:11.008Z,98865.54
2023-02-19T04:09:41.141Z,98862.95
2023-02-19T04:12:10.278Z,98862.73
2023-02-19T04:14:42.608Z,98863.31
2023-02-19T04:17:15.149Z,98874.32
2023-02-19T04:19:44.073Z,98872.50
2023-02-19T04:22:11.127Z,98882.80
2023-02-19T04:24:51.947Z,98885.73
2023-02-19T04:27:18.892Z,98878.42
2023-02-19T04:29:45.850Z,98888.17
2023-02-19T04:32:12.692Z,98891.95
2023-02-19T04:34:39.589Z,98893.98
2023-02-19T04:37:06.416Z,98899.45
2023-02-19T04:39:33.477Z,98899.98
2023-02-19T04:42:00.824Z,98907.59
2023-02-19T04:44:28.060Z,98911.23
2023-02-19T04:46:55.227Z,98909.71
2023-02-19T04:49:22.069Z,98907.25
2023-02-19T04:51:51.477Z,98910.46
2023-02-19T04:54:18.320Z,98914.88
2023-02-19T04:56:45.492Z,98925.98
2023-02-19T04:59:12.554Z,98928.14
2023-02-19T05:01:39.642Z,98933.28
2023-02-19T05:04:06.566Z,98930.38
2023-02-19T05:06:33.588Z,98934.13
2023-02-19T05:09:00.407Z,98936.74
2023-02-19T05:11:27.501Z,98935.41
2023-02-19T05:13:59.529Z,98931.58
2023-02-19T05:16:26.256Z,98933.45
2023-02-19T05:18:53.010Z,98928.80
2023-02-19T05:21:19.849Z,98929.81
2023-02-19T05:23:46.604Z,98936.97
2023-02-19T05:26:22.919Z,98937.75
2023-02-19T05:28:51.651Z,98939.96
2023-02-19T05:31:18.693Z,98938.64
2023-02-19T05:33:49.637Z,98944.36
2023-02-19T05:36:16.876Z,98943.08
2023-02-19T05:38:43.938Z,98950.35
2023-02-19T05:41:19.824Z,98959.04
2023-02-19T05:43:47.562Z,98960.48
2023-02-19T05:46:15.698Z,98956.93
2023-02-19T05:48:43.200Z,98961.14
2023-02-19T05:51:12.517Z,98961.60
2023-02-19T05:53:40.131Z,98964.25
2023-02-19T05:56:25.780Z,98959.21
2023-02-19T05:58:53.725Z,98958.97
2023-02-19T06:01:21.609Z,98963.02
2023-02-19T06:03:48.568Z,98967.85
2023-02-19T06:06:16.949Z,98964.29
2023-02-19T06:08:45.394Z,98970.73
2023-02-19T06:11:12.582Z,98963.11
2023-02-19T06:13:39.720Z,98960.73
2023-02-19T06:16:07.505Z,98957.38
2023-02-19T06:18:34.560Z,98951.16
2023-02-19T06:21:02.380Z,98944.98
2023-02-19T06:23:29.775Z,98950.72
2023-02-19T06:26:06.130Z,98947.21
2023-02-19T06:28:32.973Z,98945.16
2023-02-19T06:30:59.894Z,98953.34
2023-02-19T06:33:27.666Z,98955.69
2023-02-19T06:35:56.966Z,98956.85
2023-02-19T06:38:24.116Z,98955.36
2023-02-19T06:40:52.087Z,98959.08
2023-02-19T06:43:19.443Z,98954.77
2023-02-19T06:45:46.199Z,98959.52
2023-02-19T06:48:13.133Z,98958.27
2023-02-19T06:50:40.297Z,98955.19
2023-02-19T06:53:08.567Z,98949.81
2023-02-19T06:55:35.686Z,98951.38
2023-02-19T06:58:07.478Z,98948.52
2023-02-19T07:00:35.569Z,98949.64
2023-02-19T07:03:06.838Z,98949.27
2023-02-19T07:05:35.071Z,98959.17
2023-02-19T07:08:01.938Z,98961.33
2023-02-19T07:10:29.730Z,98959.36
2023-02-19T07:12:56.806Z,98962.24
2023-02-19T07:15:31.278Z,98964.75
2023-02-19T07:17:58.862Z,98966.79
2023-02-19T07:20:25.759Z,98963.65
2023-02-19T07:22:53.632Z,98959.16
2023-02-19T07:25:21.393Z,98958.68
2023-02-19T07:27:48.458Z,98957.21
2023-02-19T07:30:15.728Z,98958.40
2023-02-19T07:32:44.836Z,98966.77
2023-02-19T07:36:48.002Z,98976.98
2023-02-19T07:39:15.500Z,98980.93
2023-02-19T07:41:42.606Z,98980.34
2023-02-19T07:44:13.034Z,98984.80
2023-02-19T07:46:39.998Z,98986.60
2023-02-19T07:49:07.348Z,98992.19
2023-02-19T07:51:35.415Z,98994.85
2023-02-19T07:54:03.925Z,98993.52
2023-02-19T07:56:31.665Z,98992.47
2023-02-19T07:58:59.973Z,99000.04
2023-02-19T08:01:47.640Z,98993.40
2023-02-19T08:04:14.571Z,99002.75
2023-02-19T08:06:42.306Z,99008.46
2023-02-19T08:09:09.544Z,99009.44
2023-02-19T08:12:00.308Z,99004.96
2023-02-19T08:14:28.886Z,99009.29
2023-02-19T08:16:56.043Z,99011.57
2023-02-19T08:19:23.955Z,99016.61
2023-02-19T08:21:50.733Z,99023.08
2023-02-19T08:24:20.097Z,99023.39
2023-02-19T08:26:46.899Z,99028.30
2023-02-19T08:29:13.706Z,99034.54
2023-02-19T08:31:41.656Z,99027.30
2023-02-19T08:34:09.007Z,99030.79
2023-02-19T08:36:36.034Z,99023.38
2023-02-19T08:39:03.310Z,99020.80
2023-02-19T08:41:31.844Z,99023.92
2023-02-19T08:43:58.755Z,99020.67
2023-02-19T08:46:27.433Z,99017.05
2023-02-19T08:48:54.320Z,99012.23
2023-02-19T08:51:21.149Z,99013.97
2023-02-19T08:53:48.682Z,99012.36
2023-02-19T08:56:16.949Z,99011.92
2023-02-19T08:58:43.936Z,99009.44
2023-02-19T09:01:12.942Z,99004.55
2023-02-19T09:03:41.292Z,98999.94
2023-02-19T09:06:13.084Z,98999.95
2023-02-19T09:08:42.263Z,98996.31
2023-02-19T09:11:09.828Z,98999.29
2023-02-19T09:13:36.930Z,98997.79
2023-02-19T09:16:06.441Z,98999.59
2023-02-19T09:18:34.952Z,98999.17
2023-02-19T09:21:03.971Z,98997.52
2023-02-19T09:23:34.018Z,99000.13
2023-02-19T09:26:09.413Z,99006.04
2023-02-19T09:28:39.104Z,99005.31
2023-02-19T09:31:11.083Z,99001.21
2023-02-19T09:33:44.566Z,99007.88
2023-02-19T09:36:12.146Z,99009.48
2023-02-19T09:38:40.114Z,99017.29
2023-02-19T09:41:27.426Z,99014.13
2023-02-19T09:43:54.512Z,99014.05
2023-02-19T09:46:24.657Z,99014.13
2023-02-19T09:48:53.622Z,99005.27
2023-02-19T09:51:20.747Z,98992.92
2023-02-19T09:53:51.719Z,98988.84
2023-02-19T09:56:18.846Z,98983.77
2023-02-19T09:58:48.473Z,98976.27
2023-02-19T10:01:15.230Z,98977.29
2023-02-19T10:03:46.496Z,98972.08
2023-02-19T10:06:24.500Z,98963.70
2023-02-19T10:08:54.870Z,98956.83
2023-02-19T10:11:25.293Z,98951.24
2023-02-19T10:14:01.361Z,98943.19
2023-02-19T10:16:29.404Z,98939.09
2023-02-19T10:18:56.522Z,98933.02
2023-02-19T10:21:24.349Z,98937.35
2023-02-19T10:23:56.049Z,98937.20
2023-02-19T10:26:23.251Z,98937.06
2023-02-19T10:28:50.046Z,98935.52
2023-02-19T10:31:22.101Z,98927.10
2023-02-19T10:33:57.279Z,98924.26
2023-02-19T10:36:36.002Z,98914.02
2023-02-19T10:39:21.636Z,98904.52
2023-02-19T10:41:51.568Z,98895.60
2023-02-19T10:44:29.536Z,98892.30
2023-02-19T10:46:57.816Z,98887.34
2023-02-19T10:49:29.899Z,98871.02
2023-02-19T10:52:01.943Z,98874.83
2023-02-19T10:54:34.224Z,98873.05
2023-02-19T10:57:32.132Z,98866.62
2023-02-19T11:00:18.965Z,98863.59
2023-02-19T11:02:46.664Z,98861.20
2023-02-19T11:05:19.452Z,98852.66
2023-02-19T11:07:49.327Z,98849.25
2023-02-19T11:10:26.806Z,98849.63
2023-02-19T11:13:45.191Z,98846.44
2023-02-19T11:16:12.005Z,98834.33
2023-02-19T11:18:44.437Z,98826.88
2023-02-19T11:21:32.376Z,98828.36
2023-02-19T11:24:01.293Z,98824.45
2023-02-19T11:26:31.857Z,98824.67
2023-02-19T11:29:00.173Z,98818.46
2023-02-19T11:31:31.011Z,98824.50
2023-02-19T11:34:02.363Z,98819.61
2023-02-19T11:36:31.559Z,98817.45
2023-02-19T11:39:14.909Z,98821.59
2023-02-19T11:41:49.161Z,98818.95
2023-02-19T11:44:25.272Z,98825.21
2023-02-19T11:47:25.917Z,98823.35
2023-02-19T11:50:02.757Z,98830.64
2023-02-19T11:52:35.843Z,98832.94
2023-02-19T11:55:24.432Z,98829.55
2023-02-19T11:57:54.709Z,98826.26
2023-02-19T12:00:26.855Z,98830.55
2023-02-19T12:03:26.434Z,98831.33
2023-02-19T12:06:24.678Z,98826.06
2023-02-19T12:09:10.047Z,98828.15
2023-02-19T12:11:53.153Z,98826.63
2023-02-19T12:14:23.007Z,98827.44
2023-02-19T12:17:02.369Z,98823.30
2023-02-19T12:19:49.734Z,98826.48
2023-02-19T12:22:38.460Z,98828.02
2023-02-19T12:25:25.784Z,98829.39
2023-02-19T12:28:43.644Z,98833.92
2023-02-19T12:31:41.818Z,98830.73
2023-02-19T12:34:42.697Z,98827.79
2023-02-19T12:37:31.851Z,98826.47
2023-02-19T12:40:26.605Z,98830.59
2023-02-19T12:43:00.824Z,98834.63
2023-02-19T12:45:32.173Z,98836.78
2023-02-19T12:48:39.164Z,98832.93
2023-02-19T12:51:43.910Z,98834.58
2023-02-19T12:54:19.340Z,98839.19
2023-02-19T12:57:01.877Z,98838.98
2023-02-19T12:59:30.233Z,98841.73
2023-02-19T13:02:15.280Z,98840.98
2023-02-19T13:05:02.182Z,98841.45
2023-02-19T13:07:32.345Z,98839.79
2023-02-19T13:10:06.307Z,98841.08
2023-02-19T13:12:37.890Z,98840.27
2023-02-19T13:15:21.330Z,98843.81
2023-02-19T13:17:52.607Z,98841.41
2023-02-19T13:20:31.646Z,98836.50
2023-02-19T13:23:26.728Z,98838.15
2023-02-19T13:26:09.054Z,98834.73
2023-02-19T13:29:07.828Z,98832.91
2023-02-19T13:31:51.880Z,98830.55
2023-02-19T13:34:47.293Z,98831.75
2023-02-19T13:37:14.390Z,98831.85
2023-02-19T13:39:49.380Z,98832.70
2023-02-19T13:42:32.441Z,98833.20
2023-02-19T13:45:00.517Z,98832.16
2023-02-19T13:47:56.816Z,98834.51
2023-02-19T13:50:24.727Z,98835.29
2023-02-19T13:52:53.685Z,98841.27
2023-02-19T13:55:49.328Z,98830.63
2023-02-19T13:58:39.379Z,98834.72
2023-02-19T14:01:11.105Z,98838.14
2023-02-19T14:03:50.107Z,98837.89
2023-02-19T14:06:17.522Z,98836.19
2023-02-19T14:08:59.644Z,98843.69
2023-02-19T14:11:41.829Z,98844.29
2023-02-19T14:14:22.604Z,98847.29
2023-02-19T14:17:07.522Z,98842.41
2023-02-19T14:19:49.880Z,98846.20
2023-02-19T14:22:57.412Z,98846.94
2023-02-19T14:25:46.417Z,98849.40
2023-02-19T14:28:34.989Z,98849.13
2023-02-19T14:31:43.519Z,98850.54
2023-02-19T14:34:24.693Z,98848.21
2023-02-19T14:36:53.786Z,98845.56
2023-02-19T14:39:24.403Z,98844.84
2023-02-19T14:42:02.359Z,98848.06
2023-02-19T14:44:44.851Z,98846.71
2023-02-19T14:47:16.895Z,98848.76
2023-02-19T14:49:45.381Z,98844.05
2023-02-19T14:52:24.254Z,98841.50
2023-02-19T14:55:01.518Z,98841.66
2023-02-19T14:57:29.792Z,98842.72
2023-02-19T14:59:58.612Z,98842.82
2023-02-19T15:02:26.755Z,98849.62
2023-02-19T15:04:54.165Z,98849.34
2023-02-19T15:07:29.105Z,98854.20
2023-02-19T15:10:00.886Z,98857.45
2023-02-19T15:12:40.330Z,98857.87
2023-02-19T15:15:07.990Z,98859.02
2023-02-19T15:17:35.975Z,98867.18
2023-02-19T15:20:08.951Z,98863.75
2023-02-19T15:22:36.001Z,98867.20
2023-02-19T15:25:03.376Z,98867.83
2023-02-19T15:27:30.469Z,98871.96
2023-02-19T15:29:57.378Z,98870.30
2023-02-19T15:32:26.091Z,98874.45
2023-02-19T15:35:00.190Z,98873.54
2023-02-19T15:37:32.158Z,98878.83
2023-02-19T15:40:00.319Z,98882.45
2023-02-19T15:42:29.269Z,98883.91
2023-02-19T15:45:20.617Z,98887.16
2023-02-19T15:47:53.316Z,98888.42
2023-02-19T15:50:41.541Z,98890.56
2023-02-19T15:53:13.106Z,98891.67
2023-02-19T15:55:45.184Z,98899.46
2023-02-19T15:58:27.304Z,98898.42
2023-02-19T16:00:59.329Z,98902.89
2023-02-19T16:03:26.681Z,98902.73
2023-02-19T16:06:10.754Z,98907.97
2023-02-19T16:09:01.234Z,98905.95
2023-02-19T16:11:35.538Z,98910.38
2023-02-19T16:14:18.383Z,98906.48
2023-02-19T16:16:46.199Z,98905.61
2023-02-19T16:19:12.960Z,98908.50
2023-02-19T16:21:42.568Z,98907.08
2023-02-19T16:24:15.965Z,98913.44
2023-02-19T16:26:44.993Z,98911.88
2023-02-19T16:29:31.301Z,98914.44
2023-02-19T16:32:02.764Z,98916.67
2023-02-19T16:34:42.694Z,98915.55
2023-02-19T16:37:48.706Z,98913.63
2023-02-19T16:40:16.841Z,98911.92
2023-02-19T16:42:50.165Z,98912.91
2023-02-19T16:45:17.444Z,98914.55
2023-02-19T16:47:50.808Z,98912.59
2023-02-19T16:50:20.201Z,98916.45
2023-02-19T16:52:52.048Z,98919.23
2023-02-19T16:55:18.927Z,98918.70
2023-02-19T16:57:45.813Z,98916.00
2023-02-19T17:00:29.078Z,98919.58
2023-02-19T17:02:57.946Z,98912.91
2023-02-19T17:05:26.229Z,98913.15
2023-02-19T17:07:52.920Z,98914.61
2023-02-19T17:10:25.484Z,98908.23
2023-02-19T17:12:53.418Z,98906.30
2023-02-19T17:15:22.108Z,98901.52
2023-02-19T17:17:48.846Z,98903.46
2023-02-19T17:20:27.138Z,98907.88
2023-02-19T17:22:55.258Z,98916.80
2023-02-19T17:25:22.388Z,98917.41
2023-02-19T17:27:49.121Z,98912.19
2023-02-19T17:30:31.332Z,98910.66
2023-02-19T17:32:58.796Z,98907.57
2023-02-19T17:35:25.738Z,98911.05
2023-02-19T17:37:53.475Z,98910.77
2023-02-19T17:40:32.765Z,98913.16
2023-02-19T17:43:01.017Z,98914.26
2023-02-19T17:45:27.882Z,98918.33
2023-02-19T17:47:54.765Z,98918.42
2023-02-19T17:50:27.655Z,98924.15
2023-02-19T17:52:54.739Z,98924.65
2023-02-19T17:55:22.006Z,98928.48
2023-02-19T17:57:49.719Z,98927.17
2023-02-19T18:00:22.054Z,98925.42
2023-02-19T18:02:48.972Z,98925.25
2023-02-19T18:05:16.021Z,98925.28
2023-02-19T18:07:47.476Z,98927.08
2023-02-19T18:10:16.673Z,98934.87
2023-02-19T18:12:44.133Z,98930.16
2023-02-19T18:15:16.111Z,98933.30
2023-02-19T18:17:43.255Z,98944.23
2023-02-19T18:20:14.124Z,98946.71
2023-02-19T18:22:42.071Z,98950.49
2023-02-19T18:25:10.033Z,98948.88
2023-02-19T18:27:36.995Z,98956.55
2023-02-19T18:30:04.482Z,98964.75
2023-02-19T18:32:31.397Z,98968.69
2023-02-19T18:34:59.449Z,98970.79
2023-02-19T18:37:26.706Z,98974.13
2023-02-19T18:39:53.798Z,98973.11
2023-02-19T18:42:22.043Z,98972.14
2023-02-19T18:44:49.501Z,98968.77
2023-02-19T18:47:16.677Z,98973.00
2023-02-19T18:49:50.638Z,98978.48
2023-02-19T18:52:19.751Z,98978.47
2023-02-19T18:54:47.402Z,98980.42
2023-02-19T18:57:14.715Z,98978.89
2023-02-19T18:59:42.539Z,98978.70
2023-02-19T19:02:09.826Z,98978.38
2023-02-19T19:04:37.815Z,98983.84
2023-02-19T19:07:05.384Z,98988.80
2023-02-19T19:09:34.594Z,98990.70
2023-02-19T19:12:01.767Z,98991.85
2023-02-19T19:14:28.527Z,98991.20
2023-02-19T19:16:55.985Z,98994.59
2023-02-19T19:19:23.174Z,98999.02
2023-02-19T19:21:54.809Z,99003.46
2023-02-19T19:24:22.538Z,99009.84
2023-02-19T19:26:49.940Z,99016.95
2023-02-19T19:29:17.984Z,99021.76
2023-02-19T19:31:45.482Z,99024.99
2023-02-19T19:34:12.606Z,99026.14
2023-02-19T19:36:39.420Z,99037.65
2023-02-19T19:39:06.819Z,99037.36
2023-02-19T19:41:34.387Z,99043.34
2023-02-19T19:44:03.699Z,99044.38
2023-02-19T19:46:32.376Z,99054.21
2023-02-19T19:48:59.964Z,99055.05
2023-02-19T19:54:45.006Z,99062.84
2023-02-19T19:57:12.556Z,99059.88
2023-02-19T19:59:39.724Z,99062.70
2023-02-19T20:02:07.170Z,99067.93
2023-02-19T20:04:34.008Z,99070.40
2023-02-19T20:07:03.934Z,99077.14
2023-02-19T20:09:33.187Z,99081.21
2023-02-19T20:12:00.293Z,99082.34
2023-02-19T20:14:27.443Z,99089.30
2023-02-19T20:16:59.596Z,99089.02
2023-02-19T20:19:26.548Z,99090.49
2023-02-19T20:21:53.591Z,99095.67
2023-02-19T20:24:25.560Z,99097.52
2023-02-19T20:26:59.108Z,99104.80
2023-02-19T20:29:28.260Z,99106.08
2023-02-19T20:31:55.420Z,99106.11
2023-02-19T20:34:23.222Z,99104.05
2023-02-19T20:36:50.451Z,99107.95
2023-02-19T20:39:18.607Z,99109.77
2023-02-19T20:41:46.749Z,99112.98
2023-02-19T20:44:13.851Z,99118.13
2023-02-19T20:46:45.012Z,99121.15
2023-02-19T20:49:12.705Z,99129.61
2023-02-19T20:51:46.906Z,99128.05
2023-02-19T20:54:14.143Z,99130.48
2023-02-19T20:56:48.771Z,99129.66
2023-02-19T20:59:16.327Z,99139.69
2023-02-19T21:01:43.779Z,99142.03
2023-02-19T21:04:11.632Z,99150.16
2023-02-19T21:06:42.963Z,99146.10
2023-02-19T21:09:11.150Z,99148.55
2023-02-19T21:11:38.670Z,99146.98
2023-02-19T21:14:05.962Z,99149.45
2023-02-19T21:16:33.417Z,99145.11
2023-02-19T21:19:04.589Z,99147.32
2023-02-19T21:21:33.935Z,99149.89
2023-02-19T21:24:01.121Z,99151.55
2023-02-19T21:26:35.315Z,99149.52
2023-02-19T21:29:03.365Z,99153.09
2023-02-19T21:31:35.876Z,99160.48
2023-02-19T21:34:04.631Z,99162.23
2023-02-19T21:36:31.932Z,99167.03
2023-02-19T21:38:58.778Z,99164.45
2023-02-19T21:41:27.242Z,99170.13
2023-02-19T21:43:54.584Z,99175.77
2023-02-19T21:46:21.866Z,99178.94
2023-02-19T21:48:52.937Z,99176.84
2023-02-19T21:51:20.593Z,99178.42
2023-02-19T21:53:47.526Z,99179.52
2023-02-19T21:56:24.426Z,99181.44
2023-02-19T21:58:51.876Z,99179.70
2023-02-19T22:01:27.707Z,99182.37
2023-02-19T22:03:54.762Z,99183.08
2023-02-19T22:06:26.946Z,99187.13
2023-02-19T22:08:58.488Z,99188.41
2023-02-19T22:11:25.439Z,99191.08
2023-02-19T22:13:52.111Z,99192.84
2023-02-19T22:16:18.852Z,99191.42
2023-02-19T22:18:49.868Z,99194.94
2023-02-19T22:21:16.922Z,99191.11
2023-02-19T22:23:46.421Z,99189.92
2023-02-19T22:26:18.272Z,99185.73
2023-02-19T22:28:47.135Z,99191.20
2023-02-19T22:31:18.988Z,99194.92
2023-02-19T22:33:45.757Z,99197.59
2023-02-19T22:36:17.449Z,99197.45
2023-02-19T22:39:05.596Z,99199.20
2023-02-19T22:41:32.775Z,99198.70
2023-02-19T22:43:59.731Z,99202.23
2023-02-19T22:46:28.971Z,99210.15
2023-02-19T22:48:56.153Z,99205.04
2023-02-19T22:51:23.585Z,99205.89
2023-02-19T22:53:54.965Z,99205.37
2023-02-19T22:56:23.526Z,99205.17
2023-02-19T22:58:54.554Z,99206.23
2023-02-19T23:01:21.317Z,99206.92
2023-02-19T23:03:56.165Z,99208.33
2023-02-19T23:06:33.025Z,99214.14
2023-02-19T23:09:09.727Z,99218.55
2023-02-19T23:11:43.580Z,99220.49
2023-02-19T23:14:11.438Z,99215.40
2023-02-19T23:16:39.802Z,99215.75
2023-02-19T23:19:10.708Z,99222.42
2023-02-19T23:21:39.576Z,99224.17
2023-02-19T23:24:07.193Z,99224.48
2023-02-19T23:26:35.572Z,99223.09
2023-02-19T23:29:02.625Z,99225.05
2023-02-19T23:31:30.328Z,99228.91
2023-02-19T23:33:57.140Z,99231.02
2023-02-19T23:36:24.140Z,99229.26
2023-02-19T23:38:51.009Z,99234.17
2023-02-19T23:41:18.023Z,99233.15
2023-02-19T23:43:44.786Z,99229.11
2023-02-19T23:46:16.989Z,99236.14
2023-02-19T23:48:45.544Z,99235.45
2023-02-19T23:51:12.852Z,99241.61
2023-02-19T23:53:40.123Z,99243.04
2023-02-19T23:56:07.104Z,99244.42
2023-02-19T23:58:35.223Z,99241.28
